Seatac, WA (98188)

5:53 AM PDT on July 27, 2016 (GMT -0700)
Angle Lake Haven | | Change Station

Elev 417 ft 47.43 °N, 122.29 °W | Updated 20 seconds ago

Clear
Clear
56.7 °F
Feels Like 56.7 °F
N
1.1
Wind Variable Wind from WSW
Gusts 2.5 mph

Today
High -- | Low -- °F
--% Chance of Precip.
Yesterday
High -- | Low -- °F
Precip. -- in
Pressure 30.15 in
Visibility 10.0 miles
Clouds Clear
Dew Point 56 °F
Humidity 99%
Rainfall 0.00 in
Snow Depth Not available.
5:41 AM 8:48 PM
Last Quarter, 43% visible
METAR KSEA 271153Z 21004KT 10SM CLR 14/13 A3013 RMK AO2 SLP208 T01390133 10200 20139 53006
Pressure 30.15 in
Visibility 10.0 miles
Clouds Clear
Dew Point 56 °F
Humidity 99%
Rainfall 0.00 in
Snow Depth Not available.
5:41 AM 8:48 PM
Last Quarter, 43% visible
METAR KSEA 271153Z 21004KT 10SM CLR 14/13 A3013 RMK AO2 SLP208 T01390133 10200 20139 53006

10-Day Weather Forecast

Almanac

Astronomy

Jul. 27, 2016 Rise Set
Actual Time
Civil Twilight
Nautical Twilight
Astronomical Twilight
Moon
Length of Visible Light
Length of Day
Tomorrow will be .
, % of the Moon is Illuminated

Today's Extremes

State Highs State Lows

Community

WunderPhotos

Upload Photos

1,927,841 photos uploaded!

WunderBlog® & News

Nearby

Air Quality

  Air Quality AQ Index Pollutant
Not available.

Snow Depth

Station Depth Elevation

Earthquake Activity

City Distance Mag. Time & Date
Minimum magnitude displayed is 2.5.

Coastal Water Temperatures

Place Temperature

Stations

Nearby Weather Stations

Station Location Temp. Windchill Dew Point Humidity Wind Precip. Elev Updated Type
                   

Watches & Warnings

There are currently no watches in effect.